Time;durP1;ratioP1;P1;durP2;ratioP2;P2;SDS_P1;SDS_P2;PMS_P1;PMS_P2;Temp;Humidity;BMP_temperature;BMP_pressure;BME280_temperature;BME280_humidity;BME280_pressure;Samples;Min_cycle;Max_cycle;Signal;HPM_P1;HPM_P2
2022/04/05 00:02:27;;;;;;;5.82;1.70;;;;;;;26.34;25.41;101511.06;4936109;29;20031;-47
2022/04/05 00:04:55;;;;;;;4.20;1.42;;;;;;;26.30;25.33;101509.25;4935668;29;20031;-44
2022/04/05 00:07:24;;;;;;;4.05;1.33;;;;;;;26.31;25.17;101505.75;4936350;29;20448;-47
2022/04/05 00:09:52;;;;;;;7.30;1.80;;;;;;;26.29;25.13;101502.22;4936317;29;20099;-46
2022/04/05 00:12:21;;;;;;;4.55;1.55;;;;;;;26.31;24.94;101508.38;4919310;29;20027;-46
2022/04/05 00:14:50;;;;;;;5.78;1.83;;;;;;;26.29;25.19;101507.47;4919487;29;20063;-44
2022/04/05 00:17:19;;;;;;;7.93;1.90;;;;;;;26.24;25.46;101494.28;4918823;29;20497;-46
2022/04/05 00:19:48;;;;;;;5.32;1.35;;;;;;;26.29;25.28;101502.22;4919074;29;20028;-45
2022/04/05 00:22:17;;;;;;;3.97;1.25;;;;;;;26.25;25.34;101497.78;4935695;29;20083;-46
2022/04/05 00:24:45;;;;;;;3.65;1.70;;;;;;;26.26;25.36;101502.19;4936000;29;20442;-46
2022/04/05 00:27:14;;;;;;;4.35;1.50;;;;;;;26.23;25.26;101494.25;4935600;29;20050;-46
2022/04/05 00:29:43;;;;;;;4.32;1.60;;;;;;;26.23;25.40;101492.53;4935764;29;20098;-45
2022/04/05 00:32:12;;;;;;;3.97;1.23;;;;;;;26.24;25.21;101483.78;4935831;29;20036;-46
2022/04/05 00:34:40;;;;;;;5.88;1.70;;;;;;;26.19;25.31;101488.09;4936341;29;20066;-45
2022/04/05 00:37:09;;;;;;;5.10;1.60;;;;;;;26.18;25.42;101483.69;4939817;29;20024;-44
2022/04/05 00:39:38;;;;;;;4.32;1.83;;;;;;;26.17;25.20;101481.06;4940350;29;20036;-45
2022/04/05 00:42:09;;;;;;;5.65;1.60;;;;;;;26.20;25.33;101484.59;4940227;29;20042;-44
2022/04/05 00:44:38;;;;;;;4.88;1.38;;;;;;;26.19;25.50;101474.06;4939514;29;20043;-44
2022/04/05 00:47:17;;;;;;;4.60;1.50;;;;;;;26.21;25.19;101480.22;4939432;29;20038;-46
2022/04/05 00:49:46;;;;;;;3.03;1.42;;;;;;;26.13;25.53;101472.25;4939504;29;20375;-44
2022/04/05 00:52:16;;;;;;;7.30;2.05;;;;;;;26.16;25.49;101468.75;4922532;29;20038;-45
2022/04/05 00:54:47;;;;;;;3.50;1.48;;;;;;;26.19;25.24;101468.81;4939382;29;20032;-45
2022/04/05 00:57:18;;;;;;;4.05;1.70;;;;;;;26.14;25.43;101467.84;4939468;29;20031;-45
2022/04/05 00:59:49;;;;;;;5.38;1.60;;;;;;;26.15;25.46;101472.25;4939374;29;20039;-45
2022/04/05 01:02:20;;;;;;;5.05;1.50;;;;;;;26.08;25.50;101466.88;4939897;29;20028;-44
2022/04/05 01:04:49;;;;;;;3.10;1.23;;;;;;;26.17;25.16;101475.78;4939182;29;20032;-45
2022/04/05 01:07:19;;;;;;;4.80;1.60;;;;;;;26.15;25.66;101459.97;4939018;29;20470;-44
2022/04/05 01:09:48;;;;;;;3.42;1.30;;;;;;;26.13;25.39;101463.47;4939299;29;20032;-44
2022/04/05 01:12:16;;;;;;;4.65;1.73;;;;;;;26.15;25.39;101459.97;4939112;29;20094;-44
2022/04/05 01:14:45;;;;;;;6.15;1.75;;;;;;;26.18;25.61;101461.78;4938866;29;20027;-44
2022/04/05 01:17:16;;;;;;;4.88;1.65;;;;;;;26.12;25.55;101457.34;4938804;29;20035;-43
2022/04/05 01:19:47;;;;;;;3.75;1.75;;;;;;;26.13;25.48;101452.94;4938972;29;20036;-45
2022/04/05 01:22:15;;;;;;;3.85;1.27;;;;;;;26.08;25.64;101450.25;4938994;29;20525;-46
2022/04/05 01:24:44;;;;;;;4.57;1.70;;;;;;;26.08;25.30;101450.25;4938952;29;20050;-45
2022/04/05 01:27:18;;;;;;;4.28;1.50;;;;;;;26.07;25.33;101448.47;4938517;29;20478;-45
2022/04/05 01:29:47;;;;;;;6.30;1.58;;;;;;;26.09;25.28;101455.50;4938703;29;20045;-43
2022/04/05 01:32:16;;;;;;;5.38;2.00;;;;;;;26.02;25.34;101444.91;4938560;29;20040;-45
2022/04/05 01:34:45;;;;;;;4.10;1.30;;;;;;;26.10;25.49;101451.16;4938855;29;20445;-45
2022/04/05 01:37:13;;;;;;;4.50;1.52;;;;;;;26.11;25.42;101446.75;4921575;29;20028;-45
2022/04/05 01:39:42;;;;;;;4.03;1.15;;;;;;;26.07;25.33;101440.59;4938589;29;20389;-44
2022/04/05 01:42:13;;;;;;;3.95;1.42;;;;;;;26.06;25.46;101434.44;4938653;29;20035;-45
2022/04/05 01:44:42;;;;;;;5.57;1.92;;;;;;;26.06;25.69;101439.69;4938548;29;20027;-44
2022/04/05 01:47:15;;;;;;;5.30;1.88;;;;;;;26.03;25.55;101423.00;4937865;29;20027;-45
2022/04/05 01:49:45;;;;;;;4.25;1.63;;;;;;;26.07;25.24;101427.44;4938499;29;20034;-45
2022/04/05 01:52:14;;;;;;;5.82;1.98;;;;;;;26.07;25.05;101423.03;4938221;29;20094;-46
2022/04/05 01:54:43;;;;;;;4.13;1.25;;;;;;;26.07;25.63;101419.56;4937873;29;20492;-46
2022/04/05 01:57:10;;;;;;;4.10;1.42;;;;;;;26.06;25.53;101420.41;4938271;29;20038;-45
2022/04/05 01:59:40;;;;;;;4.28;1.70;;;;;;;26.05;25.74;101421.28;4921121;29;20114;-45
2022/04/05 02:02:10;;;;;;;5.53;1.58;;;;;;;26.05;25.50;101418.66;4938554;29;20497;-46
2022/04/05 02:04:38;;;;;;;4.50;1.67;;;;;;;26.09;25.28;101415.19;4938108;29;20031;-44
2022/04/05 02:07:14;;;;;;;4.88;1.60;;;;;;;26.02;25.55;101403.72;4936974;29;20446;-44
2022/04/05 02:09:43;;;;;;;3.22;1.27;;;;;;;26.05;25.17;101419.53;4937139;29;20028;-44
2022/04/05 02:12:11;;;;;;;4.55;1.65;;;;;;;26.04;25.47;101419.50;4937441;29;20067;-46
2022/04/05 02:14:40;;;;;;;3.63;1.48;;;;;;;26.04;25.40;101425.66;4938081;29;20131;-46
2022/04/05 02:17:09;;;;;;;4.72;1.38;;;;;;;26.02;25.70;101429.13;4938295;29;20034;-45
2022/04/05 02:19:38;;;;;;;2.30;1.00;;;;;;;26.02;25.81;101430.03;4920897;29;20039;-48
2022/04/05 02:22:07;;;;;;;3.13;1.42;;;;;;;26.05;25.44;101429.16;4938029;29;20110;-48
2022/04/05 02:24:36;;;;;;;4.43;1.25;;;;;;;26.02;25.45;101432.66;4937816;29;20032;-46
2022/04/05 02:27:05;;;;;;;3.42;1.42;;;;;;;26.02;25.61;101429.13;4937560;29;20642;-44
2022/04/05 02:29:34;;;;;;;2.60;1.10;;;;;;;26.01;25.55;101422.09;4937634;29;20103;-47
2022/04/05 02:32:03;;;;;;;3.50;1.42;;;;;;;26.02;25.33;101426.50;4937412;29;20537;-47
2022/04/05 02:34:31;;;;;;;4.75;1.60;;;;;;;25.99;25.50;101424.72;4920568;29;20031;-50
2022/04/05 02:37:00;;;;;;;3.33;1.17;;;;;;;26.02;25.71;101415.97;4937937;29;20020;-48
2022/04/05 02:39:29;;;;;;;5.00;1.40;;;;;;;25.97;25.36;101418.56;4937595;29;20036;-48
2022/04/05 02:41:58;;;;;;;3.03;1.10;;;;;;;25.96;25.67;101414.16;4937555;29;20035;-45
2022/04/05 02:44:26;;;;;;;3.63;1.30;;;;;;;25.98;25.61;101416.84;4937745;29;20067;-45
2022/04/05 02:46:55;;;;;;;5.30;1.45;;;;;;;25.84;25.44;101395.63;4920337;29;20501;-44
2022/04/05 02:49:24;;;;;;;3.15;1.15;;;;;;;25.92;25.62;101413.25;4937550;29;20036;-47
2022/04/05 02:51:52;;;;;;;2.90;1.30;;;;;;;25.91;25.39;101411.50;4937052;29;20047;-44
2022/04/05 02:54:21;;;;;;;4.78;1.30;;;;;;;25.98;25.51;101416.84;4920101;29;20040;-44
2022/04/05 02:56:49;;;;;;;3.60;1.13;;;;;;;25.96;25.36;101416.78;4937032;29;20043;-49
2022/04/05 02:59:18;;;;;;;2.95;1.05;;;;;;;25.97;25.45;101412.44;4935799;29;20028;-47
2022/04/05 03:01:46;;;;;;;3.95;1.13;;;;;;;25.92;25.75;101405.38;4937067;29;20059;-46
2022/04/05 03:04:15;;;;;;;3.00;1.15;;;;;;;25.94;25.48;101403.66;4937087;29;20027;-47
2022/04/05 03:06:43;;;;;;;3.55;1.17;;;;;;;25.97;25.69;101396.66;4936873;29;20038;-46
2022/04/05 03:09:12;;;;;;;4.88;1.40;;;;;;;25.95;25.47;101401.88;4937085;29;20023;-46
2022/04/05 03:11:41;;;;;;;3.28;1.33;;;;;;;25.96;25.72;101403.66;4936792;29;20032;-44
2022/04/05 03:14:10;;;;;;;3.00;1.17;;;;;;;25.90;25.88;101399.22;4936792;29;20449;-46
2022/04/05 03:16:39;;;;;;;3.47;1.02;;;;;;;25.90;25.73;101400.94;4936881;29;20039;-44
2022/04/05 03:19:08;;;;;;;7.35;1.20;;;;;;;25.90;25.85;101403.56;4937167;29;20027;-44
2022/04/05 03:21:36;;;;;;;5.03;1.08;;;;;;;25.93;25.58;101404.50;4937059;29;20075;-43
2022/04/05 03:24:05;;;;;;;3.15;1.13;;;;;;;25.91;25.60;101400.06;4937067;29;20031;-44
2022/04/05 03:26:33;;;;;;;2.00;0.80;;;;;;;25.92;25.68;101402.75;4936382;29;20038;-44
2022/04/05 03:29:02;;;;;;;2.53;1.20;;;;;;;25.90;25.55;101399.22;4936357;29;20059;-44
2022/04/05 03:31:30;;;;;;;3.47;1.05;;;;;;;25.90;25.62;101401.84;4936607;29;20505;-45
2022/04/05 03:33:59;;;;;;;3.35;1.30;;;;;;;25.94;25.57;101405.38;4936565;29;20044;-45
2022/04/05 03:36:28;;;;;;;3.25;1.13;;;;;;;25.90;25.89;101407.09;4936632;29;20091;-46
2022/04/05 03:38:56;;;;;;;3.50;1.15;;;;;;;25.92;25.74;101397.47;4936371;29;20039;-47
2022/04/05 03:41:25;;;;;;;3.38;1.23;;;;;;;25.90;25.86;101398.31;4936441;29;20064;-46
2022/04/05 03:43:54;;;;;;;2.50;1.10;;;;;;;25.88;25.47;101393.03;4936132;29;20036;-48
2022/04/05 03:46:22;;;;;;;1.92;1.02;;;;;;;25.86;25.74;101388.66;4935926;29;20118;-45
2022/04/05 03:48:51;;;;;;;3.03;1.30;;;;;;;25.82;25.69;101381.59;4936125;29;20067;-47
2022/04/05 03:51:19;;;;;;;3.33;1.35;;;;;;;25.84;25.95;101387.75;4936878;29;20043;-48
2022/04/05 03:53:48;;;;;;;3.40;0.85;;;;;;;25.87;25.55;101386.03;4936384;29;20500;-45
2022/04/05 03:56:17;;;;;;;3.60;1.10;;;;;;;25.86;25.84;101379.00;4919695;29;20035;-46
2022/04/05 03:58:45;;;;;;;3.97;1.17;;;;;;;25.85;25.58;101387.75;4936433;29;20031;-45
2022/04/05 04:01:14;;;;;;;2.72;1.08;;;;;;;25.87;25.76;101375.50;4936283;29;20032;-46
2022/04/05 04:03:42;;;;;;;3.97;1.15;;;;;;;25.89;25.71;101384.31;4918582;29;20474;-48
2022/04/05 04:06:11;;;;;;;2.55;0.90;;;;;;;25.82;25.71;101373.69;4935927;29;20036;-45
2022/04/05 04:08:39;;;;;;;3.60;1.27;;;;;;;25.82;25.57;101374.56;4935896;29;20039;-49
2022/04/05 04:11:08;;;;;;;2.70;1.00;;;;;;;25.81;25.72;101372.84;4935904;28;20474;-44
2022/04/05 04:13:37;;;;;;;1.58;0.73;;;;;;;25.82;25.87;101379.81;4935490;29;20114;-49
2022/04/05 04:16:05;;;;;;;2.13;0.77;;;;;;;25.82;25.90;101369.31;4919204;29;20047;-44
2022/04/05 04:18:34;;;;;;;3.53;1.15;;;;;;;25.78;25.93;101371.03;4935959;29;20034;-45
2022/04/05 04:21:03;;;;;;;3.22;1.10;;;;;;;25.85;25.63;101373.75;4935859;29;20477;-45
2022/04/05 04:23:31;;;;;;;3.63;1.20;;;;;;;25.81;25.97;101375.47;4935917;29;20036;-45
2022/04/05 04:25:59;;;;;;;1.67;0.85;;;;;;;25.86;25.85;101379.00;4935742;29;20027;-45
2022/04/05 04:28:28;;;;;;;3.40;1.17;;;;;;;25.79;25.57;101377.19;4935831;29;20083;-45
2022/04/05 04:30:56;;;;;;;4.15;0.93;;;;;;;25.82;25.56;101376.31;4918618;29;20052;-44
2022/04/05 04:33:25;;;;;;;3.22;1.00;;;;;;;25.80;25.56;101371.06;4935804;29;20036;-47
2022/04/05 04:35:54;;;;;;;2.70;0.93;;;;;;;25.83;25.72;101381.59;4918950;29;20389;-44
2022/04/05 04:38:23;;;;;;;4.97;1.30;;;;;;;25.82;25.65;101378.97;4935786;29;20058;-44
2022/04/05 04:40:51;;;;;;;5.65;1.55;;;;;;;25.79;25.72;101385.94;4935209;29;20039;-45
2022/04/05 04:43:23;;;;;;;3.55;1.08;;;;;;;25.80;25.57;101381.59;4935147;29;20487;-47
2022/04/05 04:45:51;;;;;;;1.88;0.75;;;;;;;25.80;25.69;101381.59;4935228;29;20031;-49
2022/04/05 04:48:19;;;;;;;2.25;0.93;;;;;;;25.76;25.91;101377.13;4935444;29;20091;-45
2022/04/05 04:50:48;;;;;;;3.45;1.15;;;;;;;25.78;25.65;101383.31;4935798;29;20083;-46
2022/04/05 04:53:17;;;;;;;3.85;1.10;;;;;;;25.77;26.11;101376.28;4935842;29;20031;-45
2022/04/05 04:55:46;;;;;;;4.65;1.10;;;;;;;25.77;26.14;101368.41;4935205;29;20035;-45
2022/04/05 04:58:14;;;;;;;2.72;0.80;;;;;;;25.77;25.92;101368.41;4935690;29;20035;-46
2022/04/05 05:00:42;;;;;;;2.50;1.08;;;;;;;25.76;26.04;101371.88;4935891;29;20027;-44
2022/04/05 05:03:11;;;;;;;2.92;1.10;;;;;;;25.76;25.72;101374.50;4935736;29;20024;-46
2022/04/05 05:05:38;;;;;;;4.43;1.08;;;;;;;25.77;25.76;101377.16;4935536;29;20079;-45
2022/04/05 05:08:08;;;;;;;3.15;1.13;;;;;;;25.76;25.77;101377.13;4935674;29;20036;-45
2022/04/05 05:10:36;;;;;;;4.25;1.27;;;;;;;25.77;25.76;101385.03;4935459;29;20027;-46
2022/04/05 05:13:06;;;;;;;4.22;1.42;;;;;;;25.77;25.68;101387.66;4935375;29;20111;-49
2022/04/05 05:15:34;;;;;;;2.05;0.90;;;;;;;25.78;25.87;101378.91;4935741;29;20024;-49
2022/04/05 05:18:03;;;;;;;2.55;0.82;;;;;;;25.76;25.62;101382.41;4935268;29;20382;-47
2022/04/05 05:20:32;;;;;;;2.13;1.02;;;;;;;25.72;25.97;101373.59;4935463;29;20028;-47
2022/04/05 05:23:00;;;;;;;3.63;1.00;;;;;;;25.71;26.14;101373.56;4937929;29;20561;-44
2022/04/05 05:25:29;;;;;;;3.20;1.00;;;;;;;25.77;26.04;101371.91;4938829;29;20038;-48
2022/04/05 05:27:57;;;;;;;1.67;0.90;;;;;;;25.74;25.88;101365.72;4938703;29;20027;-46
2022/04/05 05:30:25;;;;;;;3.40;1.20;;;;;;;25.74;26.07;101366.59;4938997;29;20103;-46
2022/04/05 05:32:54;;;;;;;3.90;1.25;;;;;;;25.70;25.89;101363.91;4938877;29;20059;-47
2022/04/05 05:35:23;;;;;;;3.85;1.13;;;;;;;25.70;25.95;101377.06;4938900;29;20027;-47
2022/04/05 05:37:52;;;;;;;1.65;0.70;;;;;;;25.67;25.95;101371.75;4938710;29;20023;-45
2022/04/05 05:40:21;;;;;;;2.40;1.13;;;;;;;25.67;26.00;101370.03;4938805;29;20028;-48
2022/04/05 05:43:04;;;;;;;3.60;1.13;;;;;;;25.69;26.17;101373.56;4938701;29;20035;-48
2022/04/05 05:45:35;;;;;;;2.72;1.10;;;;;;;25.69;25.78;101376.19;4938347;29;20027;-48
2022/04/05 05:48:06;;;;;;;3.20;0.98;;;;;;;25.67;25.89;101382.25;4938321;29;20028;-47
2022/04/05 05:50:36;;;;;;;3.03;1.02;;;;;;;25.70;25.73;101390.19;4938992;29;20095;-45
2022/04/05 05:53:04;;;;;;;1.27;0.73;;;;;;;25.70;26.06;101385.84;4938560;29;20434;-47
2022/04/05 05:55:35;;;;;;;2.35;0.93;;;;;;;25.69;25.82;101383.16;4938463;29;20115;-45
2022/04/05 05:58:04;;;;;;;5.88;1.25;;;;;;;25.69;25.83;101386.69;4921675;29;20434;-47
2022/04/05 06:00:33;;;;;;;2.17;0.80;;;;;;;25.66;26.09;101384.03;4938299;29;20087;-45
2022/04/05 06:03:02;;;;;;;2.03;0.98;;;;;;;25.69;25.96;101388.44;4938103;29;20516;-47
2022/04/05 06:05:31;;;;;;;4.15;1.17;;;;;;;25.68;26.13;101386.66;4921139;29;20478;-47
2022/04/05 06:08:00;;;;;;;4.03;1.60;;;;;;;25.67;26.14;101390.16;4937801;29;20031;-45
2022/04/05 06:10:29;;;;;;;2.30;0.90;;;;;;;25.69;25.79;101389.31;4938595;29;20032;-45
2022/04/05 06:12:58;;;;;;;2.95;0.75;;;;;;;25.68;25.85;101392.81;4937814;29;20043;-44
2022/04/05 06:15:28;;;;;;;4.65;1.00;;;;;;;25.66;26.09;101391.91;4938122;29;20083;-45
2022/04/05 06:17:58;;;;;;;1.77;0.80;;;;;;;25.58;26.32;101391.81;4938170;29;20465;-44
2022/04/05 06:20:27;;;;;;;2.47;0.90;;;;;;;25.61;25.98;101391.84;4937579;29;20397;-46
2022/04/05 06:22:59;;;;;;;2.25;0.70;;;;;;;25.62;26.22;101398.88;4937618;29;20058;-44
2022/04/05 06:25:33;;;;;;;2.30;0.95;;;;;;;25.59;26.00;101395.31;4920915;29;20028;-44
2022/04/05 06:28:04;;;;;;;2.40;0.60;;;;;;;25.61;26.07;101386.59;4937579;29;20031;-44
2022/04/05 06:30:34;;;;;;;3.58;0.77;;;;;;;25.55;26.38;101401.41;4937772;29;20044;-44
2022/04/05 06:33:14;;;;;;;3.45;1.10;;;;;;;25.52;26.00;101390.84;4937755;29;20036;-43
2022/04/05 06:35:46;;;;;;;1.85;0.80;;;;;;;25.56;26.30;101401.41;4937148;29;20114;-45
2022/04/05 06:38:15;;;;;;;4.88;0.90;;;;;;;25.55;26.50;101402.28;4937890;29;20023;-49
2022/04/05 06:40:43;;;;;;;3.40;1.00;;;;;;;25.59;26.23;101401.47;4920893;29;20556;-45
2022/04/05 06:43:13;;;;;;;3.20;0.95;;;;;;;25.55;26.17;101411.91;4937484;29;20385;-45
2022/04/05 06:45:42;;;;;;;3.78;1.23;;;;;;;25.55;26.64;101407.53;4937401;29;20042;-46
2022/04/05 06:48:11;;;;;;;3.55;0.95;;;;;;;25.54;26.46;101410.16;4937337;29;20068;-44
2022/04/05 06:50:40;;;;;;;2.28;0.75;;;;;;;25.56;26.76;101413.69;4937381;29;20477;-45
2022/04/05 06:53:10;;;;;;;1.88;0.75;;;;;;;25.52;26.44;101412.75;4937069;29;20031;-48
2022/04/05 06:55:39;;;;;;;3.30;1.10;;;;;;;25.48;26.82;101417.06;4937936;29;20386;-45
2022/04/05 06:58:08;;;;;;;3.38;1.10;;;;;;;25.50;26.55;101410.97;4937437;29;20028;-44
2022/04/05 07:00:37;;;;;;;3.35;1.42;;;;;;;25.48;26.93;101408.31;4937239;29;20028;-44
2022/04/05 07:03:06;;;;;;;3.88;1.08;;;;;;;25.52;26.70;101415.38;4937011;29;20031;-47
2022/04/05 07:05:36;;;;;;;5.47;1.27;;;;;;;25.50;26.80;101413.59;4936753;29;20035;-45
2022/04/05 07:08:05;;;;;;;3.42;1.00;;;;;;;25.50;26.77;101410.97;4937298;29;20031;-44
2022/04/05 07:10:33;;;;;;;2.97;1.33;;;;;;;25.55;26.89;101412.78;4937110;29;20064;-44
2022/04/05 07:13:02;;;;;;;8.52;1.48;;;;;;;25.59;26.80;101416.31;4937027;29;20362;-44
2022/04/05 07:15:30;;;;;;;3.33;1.02;;;;;;;25.53;26.84;101422.38;4936483;29;20537;-45
2022/04/05 07:17:59;;;;;;;2.63;1.02;;;;;;;25.52;26.69;101427.63;4936222;29;20091;-45
2022/04/05 07:20:28;;;;;;;3.72;1.52;;;;;;;25.53;26.77;101424.16;4935621;29;20028;-45
2022/04/05 07:22:56;;;;;;;2.28;0.90;;;;;;;25.48;27.03;101432.84;4936571;29;20035;-44
2022/04/05 07:25:26;;;;;;;1.48;0.77;;;;;;;25.53;26.58;101425.00;4936759;29;20106;-44
2022/04/05 07:27:54;;;;;;;3.03;1.00;;;;;;;25.48;26.77;101437.22;4936678;29;20369;-46
2022/04/05 07:30:24;;;;;;;3.15;1.10;;;;;;;25.52;26.81;101427.63;4936468;29;20401;-44
2022/04/05 07:32:53;;;;;;;2.58;1.15;;;;;;;25.53;27.13;101432.88;4936850;29;20023;-45
2022/04/05 07:35:21;;;;;;;4.40;1.17;;;;;;;25.55;27.00;101439.06;4936908;29;20024;-45
2022/04/05 07:37:51;;;;;;;2.80;1.05;;;;;;;25.58;26.86;101443.47;4936244;29;20023;-45
2022/04/05 07:40:20;;;;;;;3.33;1.17;;;;;;;25.60;27.24;101444.38;4936879;29;20036;-45
2022/04/05 07:42:50;;;;;;;3.95;1.17;;;;;;;25.61;27.21;101444.41;4937105;29;20020;-43
2022/04/05 07:45:18;;;;;;;4.15;1.42;;;;;;;25.58;26.96;101451.34;4935854;29;20114;-45
2022/04/05 07:47:47;;;;;;;4.05;1.70;;;;;;;25.59;27.27;101447.84;4936330;29;20032;-44
2022/04/05 07:50:15;;;;;;;2.92;1.05;;;;;;;25.58;27.22;101444.34;4919826;29;20032;-45
2022/04/05 07:52:44;;;;;;;3.05;1.23;;;;;;;25.61;27.04;101449.66;4936681;29;20068;-44
2022/04/05 07:55:13;;;;;;;6.68;1.67;;;;;;;25.60;26.81;101447.00;4919580;29;20062;-45
2022/04/05 07:57:41;;;;;;;4.55;1.23;;;;;;;25.61;26.88;101440.88;4919595;29;20442;-45
2022/04/05 08:00:10;;;;;;;2.88;1.05;;;;;;;25.61;27.06;101439.16;4919599;29;20114;-43
2022/04/05 08:02:39;;;;;;;3.70;1.23;;;;;;;25.60;26.83;101440.00;4936472;29;20358;-43
2022/04/05 08:05:08;;;;;;;3.97;1.30;;;;;;;25.60;26.74;101442.63;4936448;29;20049;-43
2022/04/05 08:07:37;;;;;;;2.67;0.98;;;;;;;25.59;27.20;101433.00;4935725;29;20366;-45
2022/04/05 08:10:06;;;;;;;2.60;1.00;;;;;;;25.63;26.73;101432.19;4935613;29;20035;-45
2022/04/05 08:12:46;;;;;;;6.63;1.60;;;;;;;25.59;26.76;101430.38;4936193;29;20111;-45
2022/04/05 08:15:18;;;;;;;2.75;1.10;;;;;;;25.57;26.90;101432.06;4936159;29;20024;-45
2022/04/05 08:17:46;;;;;;;4.18;1.00;;;;;;;25.54;27.15;101436.41;4936293;29;20048;-45
2022/04/05 08:20:15;;;;;;;2.97;1.02;;;;;;;25.56;26.75;101438.19;4935532;29;20504;-44
2022/04/05 08:22:45;;;;;;;4.60;1.38;;;;;;;25.60;26.84;101428.59;4935921;29;20058;-45
2022/04/05 08:25:15;;;;;;;3.35;1.20;;;;;;;25.57;27.01;101429.44;4935937;29;20114;-47
2022/04/05 08:27:45;;;;;;;5.35;1.52;;;;;;;25.56;26.74;101425.06;4935885;29;20031;-47
2022/04/05 08:30:15;;;;;;;3.72;1.63;;;;;;;25.57;27.16;101436.44;4935563;29;20052;-45
2022/04/05 08:32:45;;;;;;;4.97;1.30;;;;;;;25.57;26.70;101432.06;4935415;29;20032;-45
2022/04/05 08:35:16;;;;;;;3.10;1.42;;;;;;;25.60;26.68;101436.47;4935645;29;20034;-45
2022/04/05 08:37:45;;;;;;;3.17;1.45;;;;;;;25.55;26.82;101428.53;4936025;29;20059;-48
2022/04/05 08:40:15;;;;;;;3.20;1.33;;;;;;;25.58;26.93;101433.84;4919095;29;20496;-45
2022/04/05 08:42:47;;;;;;;2.75;1.20;;;;;;;25.58;26.79;101436.47;4935609;29;20401;-44
2022/04/05 08:45:17;;;;;;;4.55;1.17;;;;;;;25.57;27.09;101437.34;4935858;29;20028;-45
2022/04/05 08:47:48;;;;;;;3.65;1.00;;;;;;;25.56;27.06;101440.81;4935757;29;20023;-44
2022/04/05 08:50:20;;;;;;;2.92;1.00;;;;;;;25.52;26.83;101432.88;4918857;29;20032;-46
2022/04/05 08:52:49;;;;;;;4.18;1.75;;;;;;;25.57;26.68;101442.59;4918765;29;20503;-47
2022/04/05 08:55:19;;;;;;;3.45;1.13;;;;;;;25.58;26.74;101438.19;4935964;29;20035;-45
2022/04/05 08:57:48;;;;;;;3.63;1.17;;;;;;;25.57;26.70;101447.84;4937678;29;20439;-43
2022/04/05 09:00:19;;;;;;;2.88;0.90;;;;;;;25.58;26.80;101444.34;4939328;29;20059;-44
2022/04/05 09:03:07;;;;;;;2.78;1.05;;;;;;;25.60;26.93;101453.16;4939390;29;20040;-49
2022/04/05 09:05:43;;;;;;;3.28;0.98;;;;;;;25.57;26.83;101445.22;4939132;29;20036;-45
2022/04/05 09:08:13;;;;;;;3.22;1.13;;;;;;;25.55;26.63;101453.94;4939025;29;20039;-48
2022/04/05 09:10:42;;;;;;;2.65;1.10;;;;;;;25.57;27.07;101450.47;4939158;29;20492;-45
2022/04/05 09:13:12;;;;;;;3.70;1.27;;;;;;;25.54;26.63;101458.31;4938894;29;20087;-45
2022/04/05 09:15:42;;;;;;;3.13;1.17;;;;;;;25.61;26.92;101457.53;4938971;29;20107;-46
2022/04/05 09:18:11;;;;;;;3.70;1.00;;;;;;;25.57;26.90;101455.72;4939187;29;20354;-45
2022/04/05 09:20:51;;;;;;;2.78;1.10;;;;;;;25.58;26.75;101464.47;4939184;29;20485;-45
2022/04/05 09:23:30;;;;;;;4.65;1.25;;;;;;;25.57;26.74;101460.97;4939273;29;20044;-46
2022/04/05 09:26:01;;;;;;;2.13;0.70;;;;;;;25.58;26.75;101465.38;4938727;29;20118;-45
2022/04/05 09:28:37;;;;;;;4.28;1.48;;;;;;;25.56;27.15;101469.72;4939491;29;20461;-46
2022/04/05 09:31:09;;;;;;;2.33;0.90;;;;;;;25.60;27.31;101468.00;4938491;29;20063;-44
2022/04/05 09:33:40;;;;;;;3.15;1.20;;;;;;;25.57;26.96;101460.97;4938772;29;20554;-45
2022/04/05 09:36:09;;;;;;;3.08;1.00;;;;;;;25.61;26.94;101459.28;4938850;29;20040;-44
2022/04/05 09:38:39;;;;;;;3.05;0.88;;;;;;;25.59;27.09;101464.50;4938721;29;20050;-46
2022/04/05 09:41:26;;;;;;;2.65;0.80;;;;;;;25.61;26.79;101461.91;4938702;29;20393;-44
2022/04/05 09:43:57;;;;;;;3.58;1.25;;;;;;;25.57;27.20;101468.84;4938456;29;20038;-44
2022/04/05 09:46:26;;;;;;;2.85;0.80;;;;;;;25.59;26.98;101472.41;4938368;29;20474;-45
2022/04/05 09:49:14;;;;;;;2.58;0.77;;;;;;;25.60;26.99;101476.78;4938969;29;20020;-46
2022/04/05 09:51:48;;;;;;;3.85;1.05;;;;;;;25.55;26.94;101473.19;4937011;29;20042;-44
2022/04/05 09:54:27;;;;;;;2.95;1.05;;;;;;;25.59;27.29;101475.03;4937655;29;20028;-44
2022/04/05 09:57:07;;;;;;;1.83;0.90;;;;;;;25.60;26.79;101473.25;4938174;29;20043;-50
2022/04/05 09:59:41;;;;;;;2.67;0.90;;;;;;;25.59;27.13;101471.50;4938242;29;20102;-45
2022/04/05 10:02:11;;;;;;;3.08;0.73;;;;;;;25.59;26.69;101469.78;4938674;29;20167;-46
2022/04/05 10:05:09;;;;;;;3.17;1.05;;;;;;;25.60;27.13;101468.00;4938137;29;20485;-45
2022/04/05 10:07:38;;;;;;;3.25;1.45;;;;;;;25.59;27.05;101466.25;4936398;29;20072;-45
2022/04/05 10:10:08;;;;;;;2.35;0.98;;;;;;;25.65;26.81;101461.09;4937939;29;20505;-44
2022/04/05 10:12:36;;;;;;;2.40;0.80;;;;;;;25.61;26.75;101460.16;4937934;29;20477;-45
2022/04/05 10:15:05;;;;;;;2.38;0.98;;;;;;;25.58;26.79;101457.50;4938141;29;20095;-43
2022/04/05 10:17:34;;;;;;;6.82;1.35;;;;;;;25.59;27.25;101463.63;4937936;29;20051;-44
2022/04/05 10:20:03;;;;;;;5.47;1.33;;;;;;;25.57;27.02;101460.06;4938282;29;20031;-49
2022/04/05 10:22:32;;;;;;;2.88;0.98;;;;;;;25.59;27.25;101458.34;4937585;29;20470;-45
2022/04/05 10:25:00;;;;;;;4.68;1.23;;;;;;;25.58;27.25;101452.25;4938003;29;20027;-48
2022/04/05 10:27:29;;;;;;;1.45;0.68;;;;;;;25.56;27.25;101451.31;4937285;29;20036;-45
2022/04/05 10:30:07;;;;;;;1.52;0.85;;;;;;;25.58;26.97;101448.72;4937490;29;20127;-45
2022/04/05 10:32:43;;;;;;;3.45;1.20;;;;;;;25.59;27.30;101455.72;4937926;29;20044;-45
2022/04/05 10:35:12;;;;;;;2.42;1.00;;;;;;;25.57;27.07;101444.31;4937713;29;20462;-46
2022/04/05 10:37:41;;;;;;;1.38;0.50;;;;;;;25.55;27.56;101446.06;4937344;29;20053;-44
2022/04/05 10:40:10;;;;;;;2.83;1.17;;;;;;;25.59;27.19;101447.84;4937587;29;20028;-44
2022/04/05 10:42:39;;;;;;;3.67;0.70;;;;;;;25.60;27.37;101447.88;4937590;29;20031;-45
2022/04/05 10:45:14;;;;;;;2.50;0.73;;;;;;;25.60;27.56;101449.63;4937610;29;20024;-44
2022/04/05 10:48:01;;;;;;;2.28;0.70;;;;;;;25.66;27.51;101440.94;4937101;29;20044;-45
2022/04/05 10:50:30;;;;;;;3.15;1.00;;;;;;;25.67;27.56;101445.31;4930627;29;20039;-45
2022/04/05 10:53:20;;;;;;;2.75;1.08;;;;;;;25.67;27.05;101433.09;4937583;29;20082;-51
2022/04/05 10:56:08;;;;;;;2.75;0.70;;;;;;;25.66;27.22;101433.94;4932219;29;20042;-47
2022/04/05 10:58:55;;;;;;;3.40;0.80;;;;;;;25.67;27.09;101438.34;4937068;29;20032;-51
2022/04/05 11:01:25;;;;;;;2.28;0.73;;;;;;;25.63;27.26;101433.91;4937264;29;20071;-45
2022/04/05 11:04:17;;;;;;;3.42;1.13;;;;;;;25.65;27.31;101432.19;4937306;29;20047;-47
2022/04/05 11:07:10;;;;;;;2.10;0.80;;;;;;;25.68;27.14;101418.19;4936555;29;20031;-45
2022/04/05 11:09:49;;;;;;;1.52;0.73;;;;;;;25.65;27.14;101421.66;4918444;29;20043;-44
2022/04/05 11:12:25;;;;;;;1.95;0.85;;;;;;;25.65;27.64;101424.31;4936773;29;20028;-46
2022/04/05 11:14:57;;;;;;;4.13;1.10;;;;;;;25.65;27.38;101412.91;4937107;29;20032;-45
2022/04/05 11:17:27;;;;;;;2.38;1.13;;;;;;;25.65;27.43;101412.91;4936861;29;20024;-45
2022/04/05 11:19:57;;;;;;;2.95;0.80;;;;;;;25.65;27.45;101412.91;4935754;29;20031;-45
2022/04/05 11:22:29;;;;;;;3.50;0.73;;;;;;;25.61;27.31;101407.63;4937157;29;20430;-46
2022/04/05 11:25:03;;;;;;;4.68;0.95;;;;;;;25.58;27.57;101407.56;4936862;29;20035;-44
2022/04/05 11:27:33;;;;;;;1.90;0.65;;;;;;;25.62;27.76;101408.50;4936529;29;20028;-43
2022/04/05 11:30:22;;;;;;;2.40;0.75;;;;;;;25.66;27.24;101409.41;4936398;29;20122;-44
2022/04/05 11:33:10;;;;;;;2.70;0.93;;;;;;;25.65;27.38;101403.28;4931786;29;20431;-44
2022/04/05 11:35:40;;;;;;;3.10;1.10;;;;;;;25.66;27.20;101404.16;4936252;29;20036;-43
2022/04/05 11:38:23;;;;;;;2.88;1.02;;;;;;;25.71;27.57;101399.84;4937134;29;20035;-44
2022/04/05 11:41:08;;;;;;;2.47;0.82;;;;;;;25.70;27.19;101398.06;4936397;29;20115;-47